createdAt,value
2019-06-20T00:00:10.820Z,0.00
2019-06-20T00:01:10.813Z,0.00
2019-06-20T00:02:10.797Z,0.00
2019-06-20T00:03:10.795Z,0.00
2019-06-20T00:04:10.787Z,0.00
2019-06-20T00:05:10.764Z,0.00
2019-06-20T00:06:10.752Z,0.00
2019-06-20T00:07:10.751Z,0.00
2019-06-20T00:08:10.728Z,0.00
2019-06-20T00:09:10.730Z,0.00
2019-06-20T00:10:10.708Z,0.00
2019-06-20T00:11:10.696Z,0.00
2019-06-20T00:12:10.687Z,0.00
2019-06-20T00:13:10.676Z,0.00
2019-06-20T00:14:10.667Z,0.00
2019-06-20T00:15:10.670Z,0.00
2019-06-20T00:16:10.643Z,0.00
2019-06-20T00:17:10.632Z,0.00
2019-06-20T00:18:10.637Z,0.00
2019-06-20T00:19:10.612Z,0.00
2019-06-20T00:20:10.598Z,0.00
2019-06-20T00:21:10.597Z,0.00
2019-06-20T00:22:10.577Z,0.00
2019-06-20T00:23:10.567Z,0.00
2019-06-20T00:24:10.559Z,0.00
2019-06-20T00:25:10.547Z,0.00
2019-06-20T00:26:10.536Z,0.00
2019-06-20T00:27:10.543Z,0.00
2019-06-20T00:28:10.515Z,0.00
2019-06-20T00:29:10.506Z,0.00
2019-06-20T00:30:10.499Z,0.00
2019-06-20T00:31:10.481Z,0.00
2019-06-20T00:32:10.470Z,0.00
2019-06-20T00:33:10.472Z,0.00
2019-06-20T00:34:10.448Z,0.00
2019-06-20T00:35:10.437Z,0.00
2019-06-20T00:36:10.430Z,0.00
2019-06-20T00:37:10.415Z,0.00
2019-06-20T00:38:10.407Z,0.00
2019-06-20T00:39:10.409Z,0.00
2019-06-20T00:40:10.394Z,0.00
2019-06-20T00:41:10.372Z,0.00
2019-06-20T00:42:10.379Z,0.00
2019-06-20T00:43:17.333Z,0.00
2019-06-20T00:44:11.351Z,0.00
2019-06-20T00:45:10.335Z,0.00
2019-06-20T00:46:10.324Z,0.00
2019-06-20T00:47:10.311Z,0.00
2019-06-20T00:48:10.308Z,0.00
2019-06-20T00:49:10.290Z,0.00
2019-06-20T00:50:10.298Z,0.00
2019-06-20T00:51:10.266Z,0.00
2019-06-20T00:52:10.255Z,0.00
2019-06-20T00:53:10.252Z,0.00
2019-06-20T00:54:10.243Z,0.00
2019-06-20T00:55:10.222Z,0.00
2019-06-20T00:56:10.229Z,0.00
2019-06-20T00:57:10.208Z,0.00
2019-06-20T00:58:10.192Z,0.00
2019-06-20T00:59:10.184Z,0.00
2019-06-20T01:00:10.171Z,0.00
2019-06-20T01:01:10.156Z,0.00
2019-06-20T01:02:10.279Z,0.00
2019-06-20T01:03:10.137Z,0.00
2019-06-20T01:04:10.125Z,0.00
2019-06-20T01:05:10.113Z,0.00
2019-06-20T01:06:10.106Z,0.00
2019-06-20T01:07:10.093Z,0.00
2019-06-20T01:08:10.122Z,0.00
2019-06-20T01:09:10.076Z,0.00
2019-06-20T01:10:10.061Z,0.00
2019-06-20T01:11:10.051Z,0.00
2019-06-20T01:12:10.046Z,0.00
2019-06-20T01:13:10.037Z,0.00
2019-06-20T01:14:10.031Z,0.00
2019-06-20T01:15:10.010Z,0.00
2019-06-20T01:16:09.996Z,0.00
2019-06-20T01:17:09.991Z,0.00
2019-06-20T01:18:09.971Z,0.00
2019-06-20T01:19:09.965Z,0.00
2019-06-20T01:20:09.962Z,0.00
2019-06-20T01:21:09.943Z,0.00
2019-06-20T01:22:10.127Z,0.00
2019-06-20T01:23:09.917Z,0.00
2019-06-20T01:24:09.906Z,0.00
2019-06-20T01:25:09.895Z,0.00
2019-06-20T01:26:09.908Z,0.00
2019-06-20T01:27:09.876Z,0.00
2019-06-20T01:28:09.870Z,0.00
2019-06-20T01:29:09.863Z,0.00
2019-06-20T01:30:09.848Z,0.00
2019-06-20T01:31:09.834Z,0.00
2019-06-20T01:32:09.837Z,0.00
2019-06-20T01:33:09.812Z,0.00
2019-06-20T01:34:09.824Z,0.00
2019-06-20T01:35:09.791Z,0.00
2019-06-20T01:36:09.779Z,0.00
2019-06-20T01:37:09.766Z,0.00
2019-06-20T01:38:09.766Z,0.00
2019-06-20T01:39:09.749Z,0.00
2019-06-20T01:40:09.735Z,0.00
2019-06-20T01:41:09.743Z,0.00
2019-06-20T01:42:09.716Z,0.00
2019-06-20T01:43:09.705Z,0.00
2019-06-20T01:44:09.704Z,0.00
2019-06-20T01:45:09.680Z,0.00
2019-06-20T01:46:09.670Z,0.00
2019-06-20T01:47:09.665Z,0.00
2019-06-20T01:48:09.649Z,0.00
2019-06-20T01:49:09.644Z,0.00
2019-06-20T01:50:09.647Z,0.00
2019-06-20T01:51:09.618Z,0.00
2019-06-20T01:52:09.607Z,0.00
2019-06-20T01:53:09.596Z,0.00
2019-06-20T01:54:09.585Z,0.00
2019-06-20T01:55:09.576Z,0.00
2019-06-20T01:56:09.572Z,0.00
2019-06-20T01:57:09.552Z,0.00
2019-06-20T01:58:09.543Z,0.00
2019-06-20T01:59:09.529Z,0.00
2019-06-20T02:00:09.555Z,0.00
2019-06-20T02:01:09.509Z,0.00
2019-06-20T02:02:09.508Z,0.00
2019-06-20T02:03:09.490Z,0.00
2019-06-20T02:04:09.477Z,0.00
2019-06-20T02:05:09.490Z,0.00
2019-06-20T02:06:09.454Z,0.00
2019-06-20T02:07:09.444Z,0.00
2019-06-20T02:08:09.446Z,0.00
2019-06-20T02:09:09.423Z,0.00
2019-06-20T02:10:09.414Z,0.00
2019-06-20T02:11:09.403Z,0.00
2019-06-20T02:12:09.390Z,0.00
2019-06-20T02:13:09.385Z,0.00
2019-06-20T02:14:09.389Z,0.00
2019-06-20T02:15:09.357Z,0.00
2019-06-20T02:16:09.348Z,0.00
2019-06-20T02:17:09.341Z,0.00
2019-06-20T02:18:09.326Z,0.00
2019-06-20T02:19:09.319Z,0.00
2019-06-20T02:20:09.314Z,0.00
2019-06-20T02:21:09.296Z,0.00
2019-06-20T02:22:09.288Z,0.00
2019-06-20T02:23:09.275Z,0.00
2019-06-20T02:24:09.264Z,0.00
2019-06-20T02:25:09.251Z,0.00
2019-06-20T02:26:09.255Z,0.00
2019-06-20T02:27:09.233Z,0.00
2019-06-20T02:28:09.220Z,0.00
2019-06-20T02:29:09.208Z,0.00
2019-06-20T02:30:09.200Z,0.00
2019-06-20T02:31:09.188Z,0.00
2019-06-20T02:32:09.195Z,0.00
2019-06-20T02:33:09.166Z,0.00
2019-06-20T02:34:09.157Z,0.00
2019-06-20T02:35:09.154Z,0.00
2019-06-20T02:36:09.170Z,0.00
2019-06-20T02:37:09.139Z,0.00
2019-06-20T02:38:09.133Z,0.00
2019-06-20T02:39:09.103Z,4.00
2019-06-20T02:40:09.094Z,4.00
2019-06-20T02:41:09.082Z,4.00
2019-06-20T02:42:09.076Z,4.00
2019-06-20T02:43:09.060Z,4.00
2019-06-20T02:44:28.456Z,4.00
2019-06-20T02:45:10.038Z,4.00
2019-06-20T02:46:09.027Z,8.00
2019-06-20T02:47:09.022Z,4.00
2019-06-20T02:48:09.011Z,4.00
2019-06-20T02:49:08.997Z,4.00
2019-06-20T02:50:09.001Z,4.00
2019-06-20T02:51:08.978Z,4.00
2019-06-20T02:52:08.966Z,8.00
2019-06-20T02:53:08.954Z,8.00
2019-06-20T02:54:08.943Z,8.00
2019-06-20T02:55:08.931Z,8.00
2019-06-20T02:56:08.943Z,12.00
2019-06-20T02:57:08.909Z,12.00
2019-06-20T02:58:08.903Z,16.00
2019-06-20T02:59:08.891Z,16.00
2019-06-20T03:00:08.877Z,24.00
2019-06-20T03:01:08.869Z,24.00
2019-06-20T03:02:08.867Z,32.00
2019-06-20T03:03:08.846Z,36.00
2019-06-20T03:04:08.850Z,40.00
2019-06-20T03:05:08.823Z,40.00
2019-06-20T03:06:08.811Z,36.00
2019-06-20T03:07:08.811Z,32.00
2019-06-20T03:08:08.814Z,28.00
2019-06-20T03:09:08.783Z,28.00
2019-06-20T03:10:08.770Z,36.00
2019-06-20T03:11:08.760Z,32.00
2019-06-20T03:12:08.754Z,32.00
2019-06-20T03:13:09.548Z,32.00
2019-06-20T03:14:08.741Z,32.00
2019-06-20T03:15:08.725Z,32.00
2019-06-20T03:16:08.706Z,36.00
2019-06-20T03:17:08.696Z,32.00
2019-06-20T03:18:08.688Z,36.00
2019-06-20T03:19:08.697Z,44.00
2019-06-20T03:20:08.698Z,40.00
2019-06-20T03:21:08.655Z,44.00
2019-06-20T03:22:08.641Z,48.00
2019-06-20T03:23:08.633Z,52.00
2019-06-20T03:24:08.622Z,52.00
2019-06-20T03:25:08.613Z,56.00
2019-06-20T03:26:08.612Z,64.00
2019-06-20T03:27:08.592Z,64.00
2019-06-20T03:28:08.581Z,64.00
2019-06-20T03:29:08.567Z,80.00
2019-06-20T03:30:08.559Z,92.00
2019-06-20T03:31:08.551Z,96.00
2019-06-20T03:32:08.550Z,108.00
2019-06-20T03:33:08.528Z,120.00
2019-06-20T03:34:08.517Z,132.00
2019-06-20T03:35:08.503Z,140.00
2019-06-20T03:36:08.505Z,152.00
2019-06-20T03:37:08.482Z,160.00
2019-06-20T03:38:08.491Z,176.00
2019-06-20T03:39:08.462Z,180.00
2019-06-20T03:40:08.455Z,188.00
2019-06-20T03:41:08.439Z,200.00
2019-06-20T03:42:08.435Z,216.00
2019-06-20T03:43:08.423Z,224.00
2019-06-20T03:44:08.419Z,220.00
2019-06-20T03:45:08.408Z,240.00
2019-06-20T03:46:08.388Z,264.00
2019-06-20T03:47:08.375Z,276.00
2019-06-20T03:48:08.374Z,256.00
2019-06-20T03:49:08.356Z,228.00
2019-06-20T03:50:08.354Z,220.00
2019-06-20T03:51:08.364Z,216.00
2019-06-20T03:52:08.326Z,220.00
2019-06-20T03:53:08.318Z,224.00
2019-06-20T03:54:08.300Z,240.00
2019-06-20T03:55:08.293Z,256.00
2019-06-20T03:56:08.292Z,272.00
2019-06-20T03:57:08.277Z,300.00
2019-06-20T03:58:08.265Z,320.00
2019-06-20T03:59:08.250Z,336.00
2019-06-20T04:00:08.263Z,320.00
2019-06-20T04:01:08.348Z,332.00
2019-06-20T04:02:08.227Z,348.00
2019-06-20T04:03:08.211Z,404.00
2019-06-20T04:04:08.197Z,464.00
2019-06-20T04:05:08.188Z,520.00
2019-06-20T04:06:08.176Z,568.00
2019-06-20T04:07:08.172Z,660.00
2019-06-20T04:08:08.167Z,776.00
2019-06-20T04:09:08.142Z,820.00
2019-06-20T04:10:08.131Z,908.00
2019-06-20T04:11:08.126Z,1052.00
2019-06-20T04:12:08.112Z,1192.00
2019-06-20T04:13:08.101Z,1256.00
2019-06-20T04:14:08.108Z,1312.00
2019-06-20T04:15:18.707Z,1368.00
2019-06-20T04:16:09.075Z,1384.00
2019-06-20T04:17:08.060Z,1464.00
2019-06-20T04:18:08.046Z,1448.00
2019-06-20T04:19:08.048Z,1360.00
2019-06-20T04:20:08.035Z,1316.00
2019-06-20T04:21:08.045Z,1336.00
2019-06-20T04:22:08.011Z,1364.00
2019-06-20T04:23:07.995Z,1468.00
2019-06-20T04:24:07.987Z,1684.00
2019-06-20T04:25:07.972Z,1536.00
2019-06-20T04:26:07.979Z,1520.00
2019-06-20T04:27:07.961Z,1492.00
2019-06-20T04:28:07.941Z,1332.00
2019-06-20T04:29:07.929Z,1124.00
2019-06-20T04:30:07.923Z,1128.00
2019-06-20T04:31:07.906Z,1276.00
2019-06-20T04:32:07.914Z,1528.00
2019-06-20T04:33:07.894Z,1568.00
2019-06-20T04:34:07.881Z,1616.00
2019-06-20T04:35:07.865Z,1680.00
2019-06-20T04:36:07.895Z,1700.00
2019-06-20T04:37:07.846Z,1596.00
2019-06-20T04:38:07.906Z,1300.00
2019-06-20T04:39:18.610Z,1176.00
2019-06-20T04:40:08.813Z,1336.00
2019-06-20T04:41:07.803Z,1412.00
2019-06-20T04:42:07.796Z,1372.00
2019-06-20T04:43:07.782Z,1232.00
2019-06-20T04:44:07.783Z,1280.00
2019-06-20T04:45:07.781Z,1192.00
2019-06-20T04:46:07.752Z,976.00
2019-06-20T04:47:07.761Z,816.00
2019-06-20T04:48:07.732Z,700.00
2019-06-20T04:49:07.717Z,616.00
2019-06-20T04:50:07.724Z,632.00
2019-06-20T04:51:07.699Z,692.00
2019-06-20T04:52:07.689Z,688.00
2019-06-20T04:53:07.675Z,708.00
2019-06-20T04:54:07.668Z,740.00
2019-06-20T04:55:07.654Z,764.00
2019-06-20T04:56:07.656Z,880.00
2019-06-20T04:57:07.631Z,884.00
2019-06-20T04:58:07.637Z,1060.00
2019-06-20T04:59:07.625Z,1272.00
2019-06-20T05:00:07.600Z,1624.00
2019-06-20T05:01:07.589Z,2044.00
2019-06-20T05:02:07.618Z,2392.00
2019-06-20T05:03:07.570Z,2972.00
2019-06-20T05:04:07.583Z,3268.00
2019-06-20T05:05:07.553Z,3660.00
2019-06-20T05:06:07.536Z,3180.00
2019-06-20T05:07:07.526Z,2372.00
2019-06-20T05:08:07.535Z,2120.00
2019-06-20T05:09:07.509Z,2028.00
2019-06-20T05:10:07.496Z,1892.00
2019-06-20T05:11:07.484Z,2072.00
2019-06-20T05:12:07.471Z,1960.00
2019-06-20T05:13:07.461Z,1704.00
2019-06-20T05:14:07.464Z,2188.00
2019-06-20T05:15:07.462Z,2348.00
2019-06-20T05:16:07.433Z,3004.00
2019-06-20T05:17:07.509Z,3272.00
2019-06-20T05:18:07.408Z,4172.00
2019-06-20T05:19:07.397Z,4984.00
2019-06-20T05:20:07.438Z,5536.00
2019-06-20T05:21:07.382Z,4912.00
2019-06-20T05:22:07.364Z,6164.00
2019-06-20T05:23:07.356Z,8132.00
2019-06-20T05:24:07.340Z,9808.00
2019-06-20T05:25:07.331Z,8116.00
2019-06-20T05:26:07.333Z,8440.00
2019-06-20T05:27:07.318Z,9364.00
2019-06-20T05:28:07.297Z,10484.00
2019-06-20T05:29:07.289Z,10936.00
2019-06-20T05:30:07.441Z,9136.00
2019-06-20T05:31:07.266Z,10160.00
2019-06-20T05:32:07.345Z,9932.00
2019-06-20T05:33:07.251Z,9128.00
2019-06-20T05:34:07.237Z,8392.00
2019-06-20T05:35:07.224Z,8456.00
2019-06-20T05:36:07.215Z,7600.00
2019-06-20T05:37:07.204Z,7372.00
2019-06-20T05:38:07.207Z,6416.00
2019-06-20T05:39:07.193Z,5308.00
2019-06-20T05:40:07.169Z,4688.00
2019-06-20T05:41:07.161Z,4192.00
2019-06-20T05:42:07.150Z,3860.00
2019-06-20T05:43:07.137Z,3620.00
2019-06-20T05:44:07.139Z,3436.00
2019-06-20T05:45:07.127Z,3380.00
2019-06-20T05:46:10.807Z,3400.00
2019-06-20T05:47:12.426Z,3428.00
2019-06-20T05:48:08.083Z,3272.00
2019-06-20T05:49:07.077Z,3452.00
2019-06-20T05:50:07.074Z,3628.00
2019-06-20T05:51:07.053Z,3900.00
2019-06-20T05:52:07.042Z,3920.00
2019-06-20T05:53:07.030Z,3716.00
2019-06-20T05:54:07.020Z,3376.00
2019-06-20T05:55:07.010Z,2784.00
2019-06-20T05:56:07.029Z,2572.00
2019-06-20T05:57:07.027Z,2272.00
2019-06-20T05:58:06.976Z,2508.00
2019-06-20T05:59:06.970Z,2848.00
2019-06-20T06:00:08.381Z,3312.00
2019-06-20T06:01:06.954Z,3664.00
2019-06-20T06:02:06.962Z,3576.00
2019-06-20T06:03:07.319Z,3176.00
2019-06-20T06:04:06.914Z,2864.00
2019-06-20T06:05:06.966Z,2556.00
2019-06-20T06:06:06.893Z,2092.00
2019-06-20T06:07:06.888Z,1868.00
2019-06-20T06:08:06.884Z,1980.00
2019-06-20T06:09:06.898Z,2072.00
2019-06-20T06:10:06.850Z,2252.00
2019-06-20T06:11:06.901Z,2100.00
2019-06-20T06:12:06.828Z,2088.00
2019-06-20T06:13:06.816Z,2248.00
2019-06-20T06:14:06.818Z,2284.00
2019-06-20T06:15:07.388Z,2400.00
2019-06-20T06:16:06.794Z,2408.00
2019-06-20T06:17:06.780Z,2260.00
2019-06-20T06:18:06.761Z,2024.00
2019-06-20T06:19:06.750Z,1884.00
2019-06-20T06:20:06.766Z,2176.00
2019-06-20T06:21:06.734Z,2692.00
2019-06-20T06:22:06.717Z,2832.00
2019-06-20T06:23:06.712Z,2904.00
2019-06-20T06:24:06.700Z,2472.00
2019-06-20T06:25:06.696Z,1988.00
2019-06-20T06:26:06.700Z,1488.00
2019-06-20T06:27:06.666Z,1236.00
2019-06-20T06:28:06.655Z,1124.00
2019-06-20T06:29:06.650Z,1004.00
2019-06-20T06:30:06.643Z,1036.00
2019-06-20T06:31:06.628Z,1064.00
2019-06-20T06:32:06.625Z,1048.00
2019-06-20T06:33:06.605Z,1068.00
2019-06-20T06:34:06.594Z,1020.00
2019-06-20T06:35:06.627Z,1064.00
2019-06-20T06:36:06.571Z,1040.00
2019-06-20T06:37:06.563Z,1048.00
2019-06-20T06:38:06.567Z,996.00
2019-06-20T06:39:06.578Z,1008.00
2019-06-20T06:40:06.540Z,872.00
2019-06-20T06:41:06.516Z,1028.00
2019-06-20T06:42:06.504Z,1244.00
2019-06-20T06:43:06.497Z,1676.00
2019-06-20T06:44:08.477Z,2388.00
2019-06-20T06:45:06.474Z,2872.00
2019-06-20T06:46:06.468Z,2692.00
2019-06-20T06:47:06.466Z,2132.00
2019-06-20T06:48:06.446Z,2080.00
2019-06-20T06:49:06.431Z,2592.00
2019-06-20T06:50:06.439Z,3224.00
2019-06-20T06:51:06.408Z,3624.00
2019-06-20T06:52:06.407Z,4176.00
2019-06-20T06:53:06.385Z,4072.00
2019-06-20T06:54:06.386Z,4208.00
2019-06-20T06:55:06.377Z,3900.00
2019-06-20T06:56:06.381Z,3924.00
2019-06-20T06:57:06.343Z,4316.00
2019-06-20T06:58:06.332Z,4396.00
2019-06-20T06:59:06.323Z,4840.00
2019-06-20T07:00:06.438Z,5140.00
2019-06-20T07:01:10.150Z,5232.00
2019-06-20T07:02:06.306Z,5632.00
2019-06-20T07:03:06.283Z,6588.00
2019-06-20T07:04:06.271Z,6740.00
2019-06-20T07:05:06.259Z,6660.00
2019-06-20T07:06:06.256Z,6472.00
2019-06-20T07:07:06.241Z,6400.00
2019-06-20T07:08:06.248Z,6236.00
2019-06-20T07:09:06.226Z,5912.00
2019-06-20T07:10:06.209Z,6548.00
2019-06-20T07:11:06.205Z,5948.00
2019-06-20T07:12:06.203Z,5868.00
2019-06-20T07:13:06.181Z,5496.00
2019-06-20T07:14:06.173Z,5172.00
2019-06-20T07:15:06.157Z,4704.00
2019-06-20T07:16:06.152Z,4560.00
2019-06-20T07:17:06.133Z,4680.00
2019-06-20T07:18:06.131Z,4728.00
2019-06-20T07:19:06.112Z,4680.00
2019-06-20T07:20:06.121Z,4388.00
2019-06-20T07:21:06.087Z,4500.00
2019-06-20T07:22:06.078Z,4948.00
2019-06-20T07:23:06.074Z,5592.00
2019-06-20T07:24:06.057Z,6996.00
2019-06-20T07:25:06.048Z,7768.00
2019-06-20T07:26:06.042Z,7500.00
2019-06-20T07:27:06.024Z,7396.00
2019-06-20T07:28:06.018Z,7384.00
2019-06-20T07:29:06.003Z,7896.00
2019-06-20T07:30:06.004Z,8396.00
2019-06-20T07:31:05.981Z,9620.00
2019-06-20T07:32:05.982Z,9172.00
2019-06-20T07:33:06.010Z,8780.00
2019-06-20T07:34:05.952Z,8980.00
2019-06-20T07:35:05.965Z,8780.00
2019-06-20T07:36:05.930Z,10584.00
2019-06-20T07:37:05.918Z,10392.00
2019-06-20T07:38:05.943Z,10784.00
2019-06-20T07:39:05.901Z,11360.00
2019-06-20T07:40:05.885Z,14040.00
2019-06-20T07:41:05.883Z,12700.00
2019-06-20T07:42:05.866Z,9528.00
2019-06-20T07:43:05.857Z,8712.00
2019-06-20T07:44:05.863Z,10124.00
2019-06-20T07:45:05.834Z,15564.00
2019-06-20T07:46:05.905Z,10912.00
2019-06-20T07:47:17.049Z,24960.00
2019-06-20T07:48:06.802Z,25856.00
2019-06-20T07:49:05.793Z,47552.00
2019-06-20T07:50:05.797Z,24416.00
2019-06-20T07:51:05.767Z,19776.00
2019-06-20T07:52:05.757Z,21536.00
2019-06-20T07:53:05.748Z,13212.00
2019-06-20T07:54:05.754Z,12080.00
2019-06-20T07:55:05.729Z,12336.00
2019-06-20T07:56:09.292Z,13368.00
2019-06-20T07:57:05.707Z,16512.00
2019-06-20T07:58:05.712Z,14752.00
2019-06-20T07:59:05.686Z,32768.00
2019-06-20T08:00:05.679Z,18080.00
2019-06-20T08:01:05.664Z,13580.00
2019-06-20T08:02:05.662Z,13256.00
2019-06-20T08:03:05.639Z,12628.00
2019-06-20T08:04:05.636Z,10656.00
2019-06-20T08:05:05.619Z,9168.00
2019-06-20T08:06:05.613Z,8292.00
2019-06-20T08:07:05.603Z,7552.00
2019-06-20T08:08:05.605Z,7564.00
2019-06-20T08:09:05.592Z,7568.00
2019-06-20T08:10:05.568Z,7416.00
2019-06-20T08:11:05.558Z,7292.00
2019-06-20T08:12:05.554Z,6620.00
2019-06-20T08:13:05.553Z,5780.00
2019-06-20T08:14:05.534Z,5480.00
2019-06-20T08:15:15.081Z,5516.00
2019-06-20T08:16:06.502Z,5668.00
2019-06-20T08:17:05.492Z,5440.00
2019-06-20T08:18:05.516Z,5152.00
2019-06-20T08:19:05.470Z,5020.00
2019-06-20T08:20:05.476Z,4016.00
2019-06-20T08:21:05.453Z,4088.00
2019-06-20T08:22:05.453Z,3744.00
2019-06-20T08:23:05.429Z,3432.00
2019-06-20T08:24:05.422Z,3592.00
2019-06-20T08:25:05.483Z,4068.00
2019-06-20T08:26:05.409Z,4060.00
2019-06-20T08:27:06.657Z,3692.00
2019-06-20T08:28:06.514Z,3912.00
2019-06-20T08:29:18.713Z,3692.00
2019-06-20T08:30:07.286Z,3464.00
2019-06-20T08:31:06.713Z,4116.00
2019-06-20T08:32:06.537Z,4364.00
2019-06-20T08:33:10.325Z,5064.00
2019-06-20T08:34:06.592Z,5256.00
2019-06-20T08:35:06.415Z,5300.00
2019-06-20T08:36:06.555Z,5264.00
2019-06-20T08:37:06.395Z,5032.00
2019-06-20T08:38:07.075Z,5380.00
2019-06-20T08:39:06.494Z,5988.00
2019-06-20T08:40:06.468Z,7000.00
2019-06-20T08:41:06.468Z,7888.00
2019-06-20T08:42:06.386Z,7736.00
2019-06-20T08:43:06.237Z,7616.00
2019-06-20T08:44:06.159Z,6608.00
2019-06-20T08:45:06.114Z,6116.00
2019-06-20T08:46:10.072Z,5864.00
2019-06-20T08:47:06.181Z,5500.00
2019-06-20T08:48:05.166Z,5616.00
2019-06-20T08:49:05.783Z,5044.00
2019-06-20T08:50:06.068Z,5064.00
2019-06-20T08:51:06.472Z,5096.00
2019-06-20T08:52:05.597Z,5172.00
2019-06-20T08:53:05.823Z,5840.00
2019-06-20T08:54:05.451Z,6140.00
2019-06-20T08:55:05.457Z,6184.00
2019-06-20T08:56:05.499Z,5724.00
2019-06-20T08:57:05.852Z,4904.00
2019-06-20T08:58:05.606Z,4324.00
2019-06-20T08:59:05.054Z,4528.00
2019-06-20T09:03:05.010Z,5176.00
2019-06-20T09:04:04.997Z,4812.00
2019-06-20T09:05:04.998Z,3892.00
2019-06-20T09:06:04.977Z,3224.00
2019-06-20T09:08:04.968Z,2684.00
2019-06-20T09:09:04.945Z,2456.00
2019-06-20T09:10:04.933Z,2328.00
2019-06-20T09:11:04.926Z,2220.00
2019-06-20T09:12:05.166Z,2260.00
2019-06-20T09:13:04.903Z,2400.00
2019-06-20T09:14:04.917Z,2096.00
2019-06-20T09:15:04.880Z,1792.00
2019-06-20T09:16:04.871Z,1720.00
2019-06-20T09:17:04.867Z,1728.00
2019-06-20T09:18:04.850Z,1916.00
2019-06-20T09:19:04.843Z,2196.00
2019-06-20T09:20:04.841Z,2304.00
2019-06-20T09:21:04.816Z,2284.00
2019-06-20T09:22:05.070Z,2620.00
2019-06-20T09:23:04.794Z,2572.00
2019-06-20T09:24:04.783Z,3052.00
2019-06-20T09:25:04.788Z,3340.00
2019-06-20T09:26:04.777Z,3672.00
2019-06-20T09:27:04.753Z,3776.00
2019-06-20T09:28:04.752Z,4036.00
2019-06-20T09:29:04.750Z,4708.00
2019-06-20T09:30:04.736Z,5064.00
2019-06-20T09:31:04.713Z,5412.00
2019-06-20T09:32:04.747Z,6932.00
2019-06-20T09:33:04.690Z,8008.00
2019-06-20T09:34:05.471Z,9084.00
2019-06-20T09:35:04.673Z,9332.00
2019-06-20T09:36:04.722Z,11644.00
2019-06-20T09:37:04.646Z,14224.00
2019-06-20T09:38:04.651Z,13724.00
2019-06-20T09:39:04.624Z,11908.00
2019-06-20T09:40:04.615Z,11828.00
2019-06-20T09:41:04.602Z,12064.00
2019-06-20T09:42:04.593Z,10576.00
2019-06-20T09:43:04.582Z,9076.00
2019-06-20T09:44:04.602Z,8448.00
2019-06-20T09:45:04.559Z,7256.00
2019-06-20T09:46:04.558Z,6816.00
2019-06-20T09:47:04.547Z,6052.00
2019-06-20T09:48:04.527Z,5572.00
2019-06-20T09:49:04.519Z,5316.00
2019-06-20T09:50:04.521Z,4832.00
2019-06-20T09:51:04.495Z,4664.00
2019-06-20T09:52:04.485Z,4448.00
2019-06-20T09:53:04.474Z,4208.00
2019-06-20T09:54:04.466Z,4364.00
2019-06-20T09:55:04.464Z,5288.00
2019-06-20T09:56:04.475Z,5380.00
2019-06-20T09:57:04.431Z,6112.00
2019-06-20T09:58:04.434Z,7820.00
2019-06-20T09:59:04.416Z,8308.00
2019-06-20T10:00:10.109Z,8400.00
2019-06-20T10:01:05.401Z,8576.00
2019-06-20T10:02:04.381Z,9952.00
2019-06-20T10:03:04.367Z,9344.00
2019-06-20T10:04:04.355Z,9140.00
2019-06-20T10:05:04.344Z,9888.00
2019-06-20T10:06:13.429Z,9572.00
2019-06-20T10:07:05.340Z,9436.00
2019-06-20T10:08:04.314Z,9328.00
2019-06-20T10:09:04.307Z,10052.00
2019-06-20T10:10:04.292Z,10628.00
2019-06-20T10:11:04.283Z,10780.00
2019-06-20T10:12:04.280Z,11648.00
2019-06-20T10:13:04.283Z,14952.00
2019-06-20T10:14:04.251Z,13616.00
2019-06-20T10:15:04.260Z,14908.00
2019-06-20T10:16:04.237Z,12684.00
2019-06-20T10:17:04.223Z,11400.00
2019-06-20T10:18:04.211Z,11572.00
2019-06-20T10:19:04.211Z,11312.00
2019-06-20T10:20:04.191Z,10956.00
2019-06-20T10:21:04.178Z,12384.00
2019-06-20T10:22:04.171Z,12788.00
2019-06-20T10:23:04.159Z,13228.00
2019-06-20T10:24:04.146Z,11932.00
2019-06-20T10:25:04.146Z,12768.00
2019-06-20T10:26:04.126Z,12640.00
2019-06-20T10:27:04.135Z,13484.00
2019-06-20T10:28:04.103Z,12960.00
2019-06-20T10:29:04.093Z,12228.00
2019-06-20T10:30:13.857Z,12020.00
2019-06-20T10:31:05.083Z,14332.00
2019-06-20T10:32:04.079Z,13200.00
2019-06-20T10:33:04.054Z,12352.00
2019-06-20T10:34:04.042Z,14908.00
2019-06-20T10:35:04.031Z,19584.00
2019-06-20T10:36:04.020Z,10604.00
2019-06-20T10:37:04.044Z,12196.00
2019-06-20T10:38:03.999Z,9788.00
2019-06-20T10:39:03.995Z,15560.00
2019-06-20T10:40:03.987Z,10968.00
2019-06-20T10:41:03.971Z,8596.00
2019-06-20T10:42:03.967Z,6896.00
2019-06-20T10:43:03.962Z,7784.00
2019-06-20T10:44:03.940Z,8076.00
2019-06-20T10:45:03.963Z,8276.00
2019-06-20T10:46:03.924Z,7296.00
2019-06-20T10:47:03.910Z,6892.00
2019-06-20T10:48:03.895Z,6844.00
2019-06-20T10:49:03.903Z,8196.00
2019-06-20T10:50:03.878Z,10904.00
2019-06-20T10:51:03.864Z,12412.00
2019-06-20T10:52:03.854Z,14112.00
2019-06-20T10:53:03.847Z,12808.00
2019-06-20T10:54:03.875Z,11880.00
2019-06-20T10:55:03.864Z,8964.00
2019-06-20T10:56:03.813Z,11584.00
2019-06-20T10:57:03.803Z,9544.00
2019-06-20T10:58:03.800Z,9216.00
2019-06-20T10:59:03.794Z,11376.00
2019-06-20T11:00:03.772Z,10552.00
2019-06-20T11:01:03.786Z,9872.00
2019-06-20T11:02:06.460Z,7624.00
2019-06-20T11:03:03.739Z,5624.00
2019-06-20T11:04:03.730Z,4236.00
2019-06-20T11:05:03.721Z,3760.00
2019-06-20T11:06:03.709Z,4752.00
2019-06-20T11:07:03.714Z,4524.00
2019-06-20T11:08:03.687Z,5100.00
2019-06-20T11:09:03.675Z,5416.00
2019-06-20T11:10:03.669Z,5572.00
2019-06-20T11:11:03.682Z,5388.00
2019-06-20T11:12:03.658Z,5292.00
2019-06-20T11:13:03.646Z,6200.00
2019-06-20T11:14:03.632Z,5216.00
2019-06-20T11:15:03.613Z,5044.00
2019-06-20T11:16:03.602Z,5280.00
2019-06-20T11:17:03.593Z,5468.00
2019-06-20T11:18:03.598Z,6924.00
2019-06-20T11:19:03.584Z,8488.00
2019-06-20T11:20:03.561Z,8500.00
2019-06-20T11:21:03.549Z,8264.00
2019-06-20T11:22:03.554Z,7472.00
2019-06-20T11:23:03.526Z,6980.00
2019-06-20T11:24:03.525Z,6544.00
2019-06-20T11:25:03.520Z,6448.00
2019-06-20T11:26:03.496Z,6400.00
2019-06-20T11:27:03.485Z,5824.00
2019-06-20T11:28:03.478Z,5932.00
2019-06-20T11:29:03.491Z,6368.00
2019-06-20T11:30:03.698Z,6500.00
2019-06-20T11:31:03.458Z,5676.00
2019-06-20T11:32:03.435Z,5960.00
2019-06-20T11:33:03.427Z,5944.00
2019-06-20T11:34:03.412Z,5464.00
2019-06-20T11:35:03.424Z,5412.00
2019-06-20T11:36:03.388Z,6224.00
2019-06-20T11:37:03.391Z,6112.00
2019-06-20T11:38:03.374Z,6448.00
2019-06-20T11:39:03.357Z,6776.00
2019-06-20T11:40:03.348Z,6084.00
2019-06-20T11:41:03.334Z,6048.00
2019-06-20T11:42:03.328Z,5308.00
2019-06-20T11:43:03.479Z,5064.00
2019-06-20T11:44:03.309Z,4724.00
2019-06-20T11:45:03.334Z,3968.00
2019-06-20T11:46:03.285Z,4468.00
2019-06-20T11:47:03.325Z,5032.00
2019-06-20T11:48:03.263Z,5536.00
2019-06-20T11:49:03.262Z,5232.00
2019-06-20T11:50:03.263Z,5420.00
2019-06-20T11:51:03.234Z,7072.00
2019-06-20T11:52:03.222Z,7616.00
2019-06-20T11:53:03.224Z,8680.00
2019-06-20T11:54:03.200Z,8292.00
2019-06-20T11:55:03.204Z,7068.00
2019-06-20T11:56:03.187Z,6876.00
2019-06-20T11:57:03.181Z,6360.00
2019-06-20T11:58:03.160Z,7576.00
2019-06-20T11:59:03.154Z,8032.00
2019-06-20T12:00:03.139Z,7492.00
2019-06-20T12:01:04.219Z,7232.00
2019-06-20T12:02:03.120Z,7092.00
2019-06-20T12:03:03.108Z,6504.00
2019-06-20T12:04:03.098Z,5892.00
2019-06-20T12:05:03.083Z,5376.00
2019-06-20T12:06:03.099Z,5424.00
2019-06-20T12:07:03.077Z,5440.00
2019-06-20T12:08:03.063Z,6164.00
2019-06-20T12:09:03.043Z,6104.00
2019-06-20T12:10:03.037Z,5352.00
2019-06-20T12:11:03.030Z,5240.00
2019-06-20T12:12:03.016Z,4920.00
2019-06-20T12:13:03.028Z,5112.00
2019-06-20T12:14:03.006Z,5536.00
2019-06-20T12:15:02.985Z,5488.00
2019-06-20T12:16:02.971Z,5208.00
2019-06-20T12:17:02.959Z,5092.00
2019-06-20T12:18:02.951Z,5056.00
2019-06-20T12:19:02.951Z,5124.00
2019-06-20T12:20:02.929Z,5160.00
2019-06-20T12:21:02.951Z,4992.00
2019-06-20T12:22:02.909Z,5036.00
2019-06-20T12:23:02.897Z,5840.00
2019-06-20T12:24:02.888Z,5356.00
2019-06-20T12:25:02.885Z,5884.00
2019-06-20T12:26:02.868Z,6440.00
2019-06-20T12:27:02.858Z,5840.00